Etusivu
METAR-TAF:

METAR-TAF

Lentoasemat :

Lycksele, Ruotsi

Leveyspiiri: 64-32-51N, Pituuspiiri: 018-43-03E, korkeus merenpinnasta: 211 m

Tämänhetkinen sää

Tämä raportti tehtiin 14 minuuttia sitten, kello 04.20 UTC
Tuuli 5 kn lännestä
Lämpötila 9°C
Kosteus 93%
Ilmanpaine 1020 hPa
Näkyvyys 10 km tai enemmän

METAR: ESNL 240420Z AUTO 28005KT 9999 NCD 09/08 Q1020

Aika: 06:34 (04:34 UTC)


TAF: puuttuu

Säähavainnot ja -ennusteet yli 4000 lentoasemalta (METAR- ja TAF-raportit).

Käytössä olevat sääasemat on merkitty karttaan keltaisilla ja punaisilla pisteillä.

Aseta hiiri pisteen päälle nähdäksesi sääaseman nimen.

Klikkaa sitten nähdäksesi säähavainnot ja -ennusteet.

Kartan vaihtaminen: klikkaa mustalla rastilla varustettuja vihreitä pisteitä, niin voit zoomata sisään; viivalla varustettua vihreää pistettä, niin voit zoomata ulos tai vihreitä nuolia, niin pääset viereisille kartoille.


METAR-TAF: